Pagina principale
METAR-TAF:

METAR-TAF

Aeroporti :

Van, Turchia

latitudine: 38-27N, longitudine: 043-19E, altezza: 1667 m

Osservazione

Il bollettino è stato emesso 43 minuti fa, alle 01:50 UTC
Vento 4 kt da est
Temperature 3°C
Umidità 60%
Pressione 1028 hPa
Visibilità 10 km o più
nessuna nube inferiore a 1500 m e nessun cumulonembo

METAR: LTCI 240150Z 10004KT CAVOK 03/M04 Q1028 NOSIG

Ora: 05:33 (02:33 UTC)

Previsione

Il bollettino è stato emesso 3 ore e 53 minuti fa, alle 22:40 UTC
Previsione valida dal 24 alle 00 UTC al 24 alle 09 UTC
Vento 5 kt da est
Visibilità 10 km o più
nessuna nube inferiore a 1500 m e nessun cumulonembo
Evoluzione graduale
dal 24 alle 04 UTC al 24 alle 06 UTC
Vento 10 kt da ovest
Poco nuvoloso ad un'altezza di 4000 ft
Nubi sparse ad un'altezza di 18000 ft

TAF: LTCI 232240Z 2400/2409 09005KT CAVOK BECMG 2404/2406 28010KT FEW040 SCT180

Osservazioni e previsioni meteorologiche di più di 4000 aeroporti (messaggi METAR e TAF).

Le stazioni disponibili sono rappresentate dai dischi gialli e rossi sulla carta.

Puntare il mouse per vedere il nome della stazione.

Clicca sopra per visualizzare le osservazioni e previsioni meteorologiche.

Per cambiare la mappa : fare clic sui pulsanti verdi con una croce nera per ingrandire, il pulsante verde con un trattino per diminuire, o sulla freccia verde per le mappe adiacenti.


METAR-TAF: